createdAt,value
2023-04-16T00:00:14.753Z,53.36
2023-04-16T00:01:56.172Z,53.59
2023-04-16T00:03:37.948Z,54.91
2023-04-16T00:05:19.371Z,56.48
2023-04-16T00:07:00.662Z,57.42
2023-04-16T00:08:41.947Z,56.23
2023-04-16T00:10:23.242Z,56.61
2023-04-16T00:12:04.541Z,56.49
2023-04-16T00:13:45.783Z,55.45
2023-04-16T00:15:27.071Z,55.55
2023-04-16T00:17:08.492Z,55.96
2023-04-16T00:18:49.944Z,55.29
2023-04-16T00:20:31.238Z,54.62
2023-04-16T00:22:12.645Z,53.37
2023-04-16T00:23:53.929Z,54.62
2023-04-16T00:25:35.220Z,55.37
2023-04-16T00:27:16.519Z,55.51
2023-04-16T00:28:57.836Z,54.98
2023-04-16T00:30:39.175Z,53.50
2023-04-16T00:32:20.484Z,53.19
2023-04-16T00:34:01.856Z,54.17
2023-04-16T00:35:43.185Z,54.83
2023-04-16T00:37:24.553Z,55.00
2023-04-16T00:39:05.897Z,54.94
2023-04-16T00:40:47.210Z,56.58
2023-04-16T00:42:28.529Z,56.97
2023-04-16T00:44:09.821Z,56.77
2023-04-16T00:45:51.154Z,56.10
2023-04-16T00:47:32.506Z,56.54
2023-04-16T00:49:13.839Z,57.97
2023-04-16T00:50:55.189Z,58.02
2023-04-16T00:52:36.526Z,58.34
2023-04-16T00:54:17.820Z,57.28
2023-04-16T00:55:59.106Z,56.52
2023-04-16T00:57:40.414Z,57.04
2023-04-16T00:59:21.735Z,57.44
2023-04-16T01:01:03.032Z,58.32
2023-04-16T01:02:44.512Z,57.80
2023-04-16T01:04:25.918Z,57.95
2023-04-16T01:06:07.554Z,58.42
2023-04-16T01:07:48.855Z,59.01
2023-04-16T01:09:30.164Z,58.93
2023-04-16T01:11:11.452Z,59.47
2023-04-16T01:12:52.745Z,59.02
2023-04-16T01:14:34.049Z,57.99
2023-04-16T01:16:15.353Z,58.00
2023-04-16T01:17:56.741Z,57.68
2023-04-16T01:19:38.043Z,57.41
2023-04-16T01:21:19.382Z,58.13
2023-04-16T01:23:00.676Z,58.03
2023-04-16T01:24:41.971Z,56.87
2023-04-16T01:26:23.241Z,56.91
2023-04-16T01:28:04.551Z,56.54
2023-04-16T01:29:45.849Z,56.42
2023-04-16T01:31:27.248Z,56.19
2023-04-16T01:33:08.594Z,55.85
2023-04-16T01:34:49.874Z,55.86
2023-04-16T01:36:31.164Z,55.97
2023-04-16T01:38:12.548Z,55.91
2023-04-16T01:39:53.839Z,55.96
2023-04-16T01:41:35.145Z,55.99
2023-04-16T01:43:16.480Z,56.07
2023-04-16T01:44:57.772Z,56.49
2023-04-16T01:46:39.112Z,56.40
2023-04-16T01:48:20.432Z,57.37
2023-04-16T01:50:01.831Z,57.87
2023-04-16T01:51:43.157Z,57.92
2023-04-16T01:53:24.467Z,57.03
2023-04-16T01:55:05.740Z,58.07
2023-04-16T01:56:47.093Z,58.17
2023-04-16T01:58:28.382Z,58.10
2023-04-16T02:00:09.685Z,57.08
2023-04-16T02:01:51.083Z,57.17
2023-04-16T02:03:32.658Z,57.36
2023-04-16T02:05:14.185Z,56.79
2023-04-16T02:06:55.528Z,57.76
2023-04-16T02:08:36.797Z,56.43
2023-04-16T02:10:18.160Z,55.48
2023-04-16T02:11:59.493Z,56.62
2023-04-16T02:13:40.814Z,56.52
2023-04-16T02:15:22.080Z,55.89
2023-04-16T02:17:03.367Z,56.92
2023-04-16T02:18:44.682Z,55.94
2023-04-16T02:20:25.959Z,57.02
2023-04-16T02:22:07.246Z,56.75
2023-04-16T02:23:48.542Z,57.06
2023-04-16T02:25:29.823Z,57.98
2023-04-16T02:27:11.160Z,58.42
2023-04-16T02:28:52.468Z,59.22
2023-04-16T02:30:33.745Z,59.47
2023-04-16T02:32:15.065Z,59.52
2023-04-16T02:33:56.435Z,59.35
2023-04-16T02:35:37.753Z,58.68
2023-04-16T02:37:19.019Z,58.02
2023-04-16T02:39:00.297Z,57.85
2023-04-16T02:40:41.608Z,57.75
2023-04-16T02:42:22.896Z,57.79
2023-04-16T02:44:04.207Z,58.71
2023-04-16T02:45:45.542Z,59.39
2023-04-16T02:47:26.933Z,59.81
2023-04-16T02:49:08.463Z,59.07
2023-04-16T02:50:49.936Z,58.23
2023-04-16T02:52:31.240Z,58.14
2023-04-16T02:54:12.512Z,57.52
2023-04-16T02:55:53.823Z,57.72
2023-04-16T02:57:35.113Z,57.13
2023-04-16T02:59:16.423Z,57.11
2023-04-16T03:00:57.739Z,56.31
2023-04-16T03:02:39.126Z,55.52
2023-04-16T03:04:20.552Z,55.69
2023-04-16T03:06:01.966Z,56.16
2023-04-16T03:07:43.282Z,56.52
2023-04-16T03:09:24.777Z,57.81
2023-04-16T03:11:06.112Z,58.89
2023-04-16T03:12:47.409Z,57.99
2023-04-16T03:14:28.700Z,57.29
2023-04-16T03:16:10.005Z,57.44
2023-04-16T03:17:51.361Z,56.66
2023-04-16T03:19:32.674Z,57.22
2023-04-16T03:21:13.974Z,56.90
2023-04-16T03:22:55.272Z,57.25
2023-04-16T03:24:36.549Z,56.66
2023-04-16T03:26:17.831Z,56.72
2023-04-16T03:27:59.167Z,57.19
2023-04-16T03:29:40.440Z,56.51
2023-04-16T03:31:21.815Z,56.50
2023-04-16T03:33:03.242Z,57.27
2023-04-16T03:34:44.560Z,56.86
2023-04-16T03:36:25.870Z,57.56
2023-04-16T03:38:07.173Z,57.02
2023-04-16T03:39:48.508Z,56.20
2023-04-16T03:41:29.912Z,56.84
2023-04-16T03:43:11.176Z,56.29
2023-04-16T03:44:52.467Z,55.86
2023-04-16T03:46:33.799Z,55.86
2023-04-16T03:48:15.133Z,55.54
2023-04-16T03:49:56.415Z,55.83
2023-04-16T03:51:37.710Z,56.04
2023-04-16T03:53:19.036Z,56.65
2023-04-16T03:55:00.350Z,56.55
2023-04-16T03:56:41.703Z,55.79
2023-04-16T03:58:22.984Z,56.38
2023-04-16T04:00:04.273Z,56.03
2023-04-16T04:01:45.591Z,55.91
2023-04-16T04:03:27.244Z,57.25
2023-04-16T04:05:08.878Z,57.11
2023-04-16T04:06:50.235Z,57.74
2023-04-16T04:08:31.559Z,57.17
2023-04-16T04:10:12.856Z,57.72
2023-04-16T04:11:54.162Z,57.90
2023-04-16T04:13:35.430Z,57.80
2023-04-16T04:15:16.720Z,57.48
2023-04-16T04:16:58.031Z,57.42
2023-04-16T04:18:39.312Z,57.16
2023-04-16T04:20:20.595Z,57.19
2023-04-16T04:22:01.897Z,56.60
2023-04-16T04:23:43.183Z,56.06
2023-04-16T04:25:24.500Z,56.57
2023-04-16T04:27:05.804Z,56.31
2023-04-16T04:28:47.059Z,55.40
2023-04-16T04:30:28.329Z,54.54
2023-04-16T04:32:09.621Z,54.12
2023-04-16T04:33:50.928Z,53.46
2023-04-16T04:35:32.206Z,53.16
2023-04-16T04:37:13.494Z,52.85
2023-04-16T04:38:54.807Z,52.42
2023-04-16T04:40:36.193Z,52.98
2023-04-16T04:42:17.461Z,52.99
2023-04-16T04:43:58.848Z,53.83
2023-04-16T04:45:40.159Z,53.75
2023-04-16T04:47:21.504Z,54.11
2023-04-16T04:49:02.856Z,53.56
2023-04-16T04:50:44.197Z,53.64
2023-04-16T04:52:25.464Z,52.91
2023-04-16T04:54:06.800Z,52.44
2023-04-16T04:55:52.153Z,52.97
2023-04-16T04:57:35.221Z,52.77
2023-04-16T04:59:16.553Z,52.25
2023-04-16T05:00:57.861Z,52.17
2023-04-16T05:02:39.254Z,52.41
2023-04-16T05:04:20.716Z,52.86
2023-04-16T05:06:02.105Z,52.81
2023-04-16T05:07:43.416Z,53.64
2023-04-16T05:09:24.730Z,53.69
2023-04-16T05:11:06.019Z,53.79
2023-04-16T05:12:48.931Z,53.76
2023-04-16T05:14:30.426Z,54.78
2023-04-16T05:16:11.773Z,54.85
2023-04-16T05:17:53.138Z,54.19
2023-04-16T05:19:34.504Z,54.24
2023-04-16T05:21:15.791Z,53.85
2023-04-16T05:22:57.069Z,53.97
2023-04-16T05:24:38.384Z,53.93
2023-04-16T05:26:19.659Z,55.72
2023-04-16T05:28:00.936Z,57.08
2023-04-16T05:29:42.226Z,57.65
2023-04-16T05:31:23.564Z,58.32
2023-04-16T05:33:04.920Z,59.92
2023-04-16T05:34:46.216Z,61.23
2023-04-16T05:36:27.511Z,61.04
2023-04-16T05:38:08.803Z,61.02
2023-04-16T05:39:50.119Z,60.38
2023-04-16T05:41:31.427Z,60.32
2023-04-16T05:43:12.716Z,58.94
2023-04-16T05:44:54.046Z,59.08
2023-04-16T05:46:35.379Z,57.97
2023-04-16T05:48:16.871Z,57.36
2023-04-16T05:49:58.394Z,57.87
2023-04-16T05:51:39.682Z,57.60
2023-04-16T05:53:20.995Z,56.87
2023-04-16T05:55:02.272Z,57.31
2023-04-16T05:56:43.579Z,57.76
2023-04-16T05:58:24.861Z,57.89
2023-04-16T06:00:06.229Z,57.04
2023-04-16T06:01:47.627Z,57.24
2023-04-16T06:03:29.020Z,57.78
2023-04-16T06:05:10.412Z,58.03
2023-04-16T06:06:51.762Z,58.43
2023-04-16T06:08:33.048Z,57.80
2023-04-16T06:10:14.322Z,58.49
2023-04-16T06:11:55.661Z,58.23
2023-04-16T06:13:36.934Z,58.50
2023-04-16T06:15:18.213Z,56.97
2023-04-16T06:16:59.555Z,55.46
2023-04-16T06:18:40.822Z,54.40
2023-04-16T06:20:22.368Z,53.19
2023-04-16T06:22:03.755Z,52.68
2023-04-16T06:23:45.064Z,51.87
2023-04-16T06:25:26.336Z,51.19
2023-04-16T06:27:07.641Z,51.31
2023-04-16T06:28:48.913Z,50.72
2023-04-16T06:30:30.206Z,50.59
2023-04-16T06:32:11.508Z,50.09
2023-04-16T06:33:52.814Z,49.62
2023-04-16T06:35:34.118Z,49.24
2023-04-16T06:37:15.401Z,48.61
2023-04-16T06:38:56.704Z,49.00
2023-04-16T06:40:38.018Z,49.04
2023-04-16T06:42:19.365Z,48.43
2023-04-16T06:44:00.700Z,47.95
2023-04-16T06:45:42.077Z,46.98
2023-04-16T06:47:23.398Z,46.56
2023-04-16T06:49:04.704Z,46.29
2023-04-16T06:50:46.031Z,46.49
2023-04-16T06:52:27.379Z,46.82
2023-04-16T06:54:08.937Z,47.21
2023-04-16T06:55:50.208Z,47.92
2023-04-16T06:57:31.529Z,47.87
2023-04-16T06:59:12.968Z,47.49
2023-04-16T07:00:54.482Z,47.40
2023-04-16T07:02:36.008Z,47.08
2023-04-16T07:04:17.485Z,46.50
2023-04-16T07:05:58.912Z,46.37
2023-04-16T07:07:40.268Z,45.46
2023-04-16T07:09:21.628Z,44.32
2023-04-16T07:11:02.963Z,43.89
2023-04-16T07:12:44.288Z,44.39
2023-04-16T07:14:25.603Z,43.57
2023-04-16T07:16:06.907Z,43.86
2023-04-16T07:17:48.311Z,43.88
2023-04-16T07:19:29.628Z,44.58
2023-04-16T07:21:10.911Z,43.99
2023-04-16T07:22:52.201Z,43.75
2023-04-16T07:24:33.524Z,42.98
2023-04-16T07:26:14.798Z,43.41
2023-04-16T07:27:56.113Z,43.04
2023-04-16T07:29:37.432Z,43.08
2023-04-16T07:31:18.784Z,43.09
2023-04-16T07:33:00.246Z,43.33
2023-04-16T07:34:41.561Z,42.98
2023-04-16T07:36:22.862Z,43.04
2023-04-16T07:38:04.170Z,43.47
2023-04-16T07:39:45.482Z,43.07
2023-04-16T07:41:26.791Z,42.79
2023-04-16T07:43:08.088Z,41.02
2023-04-16T07:44:49.406Z,41.35
2023-04-16T07:46:43.210Z,41.44
2023-04-16T07:48:28.045Z,41.63
2023-04-16T07:50:09.344Z,41.09
2023-04-16T07:51:50.647Z,40.75
2023-04-16T07:53:31.968Z,40.91
2023-04-16T07:55:13.248Z,41.38
2023-04-16T07:56:54.558Z,41.96
2023-04-16T07:58:35.876Z,45.98
2023-04-16T08:00:17.218Z,46.78
2023-04-16T08:01:58.542Z,47.33
2023-04-16T08:03:40.020Z,47.10
2023-04-16T08:05:21.657Z,47.37
2023-04-16T08:07:03.021Z,46.54
2023-04-16T08:08:44.319Z,45.35
2023-04-16T08:10:25.613Z,44.36
2023-04-16T08:12:06.939Z,44.28
2023-04-16T08:13:48.249Z,43.14
2023-04-16T08:15:29.600Z,42.54
2023-04-16T08:17:10.958Z,42.36
2023-04-16T08:18:52.274Z,42.86
2023-04-16T08:20:33.580Z,42.71
2023-04-16T08:22:14.902Z,42.46
2023-04-16T08:23:56.170Z,41.80
2023-04-16T08:25:37.460Z,41.68
2023-04-16T08:27:20.157Z,41.12
2023-04-16T08:29:01.717Z,41.72
2023-04-16T08:30:43.017Z,41.73
2023-04-16T08:32:24.355Z,40.87
2023-04-16T08:34:05.695Z,41.58
2023-04-16T08:35:46.973Z,40.55
2023-04-16T08:37:28.274Z,41.02
2023-04-16T08:39:09.980Z,40.15
2023-04-16T08:40:51.485Z,40.60
2023-04-16T08:42:32.794Z,40.62
2023-04-16T08:44:14.127Z,41.11
2023-04-16T08:45:55.414Z,42.67
2023-04-16T08:47:36.767Z,42.63
2023-04-16T08:49:18.058Z,41.45
2023-04-16T08:50:59.351Z,40.65
2023-04-16T08:52:40.657Z,40.66
2023-04-16T08:54:22.044Z,40.53
2023-04-16T08:56:03.318Z,40.78
2023-04-16T08:57:44.656Z,40.92
2023-04-16T08:59:25.985Z,39.54
2023-04-16T09:01:07.294Z,40.45
2023-04-16T09:02:48.858Z,40.84
2023-04-16T09:04:30.483Z,40.59
2023-04-16T09:06:11.918Z,40.91
2023-04-16T09:07:53.227Z,40.31
2023-04-16T09:09:34.698Z,39.30
2023-04-16T09:11:16.048Z,40.21
2023-04-16T09:12:57.398Z,40.07
2023-04-16T09:14:38.930Z,39.27
2023-04-16T09:16:20.266Z,39.40
2023-04-16T09:18:01.661Z,38.85
2023-04-16T09:19:43.040Z,39.91
2023-04-16T09:21:24.444Z,39.58
2023-04-16T09:23:05.744Z,38.78
2023-04-16T09:24:47.035Z,38.14
2023-04-16T09:26:28.324Z,38.43
2023-04-16T09:28:09.652Z,39.40
2023-04-16T09:29:50.945Z,39.52
2023-04-16T09:31:32.283Z,39.91
2023-04-16T09:33:13.596Z,40.00
2023-04-16T09:34:55.077Z,40.16
2023-04-16T09:36:36.457Z,40.00
2023-04-16T09:38:17.840Z,39.56
2023-04-16T09:39:59.135Z,40.20
2023-04-16T09:41:40.437Z,41.39
2023-04-16T09:43:21.762Z,41.54
2023-04-16T09:45:05.517Z,40.43
2023-04-16T09:46:47.410Z,40.71
2023-04-16T09:48:28.691Z,40.88
2023-04-16T09:50:11.952Z,41.44
2023-04-16T09:51:54.073Z,41.48
2023-04-16T09:53:35.354Z,41.22
2023-04-16T09:55:16.641Z,40.33
2023-04-16T09:56:57.929Z,40.48
2023-04-16T09:58:39.232Z,41.81
2023-04-16T10:00:20.529Z,41.31
2023-04-16T10:02:14.614Z,41.13
2023-04-16T10:03:57.641Z,40.36
2023-04-16T10:05:38.988Z,42.75
2023-04-16T10:07:20.302Z,41.86
2023-04-16T10:09:01.641Z,42.10
2023-04-16T10:10:42.948Z,42.63
2023-04-16T10:12:24.249Z,42.83
2023-04-16T10:14:05.532Z,42.29
2023-04-16T10:15:46.815Z,41.34
2023-04-16T10:17:28.130Z,40.91
2023-04-16T10:19:09.624Z,40.81
2023-04-16T10:20:51.219Z,42.82
2023-04-16T10:22:32.520Z,44.10
2023-04-16T10:24:13.816Z,44.26
2023-04-16T10:25:57.343Z,43.62
2023-04-16T10:27:38.973Z,42.24
2023-04-16T10:29:20.266Z,40.65
2023-04-16T10:31:01.640Z,41.89
2023-04-16T10:32:43.010Z,41.97
2023-04-16T10:34:24.339Z,40.21
2023-04-16T10:36:07.748Z,42.14
2023-04-16T10:37:49.573Z,42.38
2023-04-16T10:39:30.849Z,42.16
2023-04-16T10:41:12.131Z,42.92
2023-04-16T10:42:53.508Z,42.65
2023-04-16T10:44:34.795Z,43.56
2023-04-16T10:46:16.100Z,42.80
2023-04-16T10:47:57.570Z,43.97
2023-04-16T10:49:38.860Z,43.73
2023-04-16T10:51:20.161Z,43.15
2023-04-16T10:53:01.538Z,42.52
2023-04-16T10:54:42.816Z,42.36
2023-04-16T10:56:24.131Z,41.53
2023-04-16T10:58:05.514Z,43.28
2023-04-16T10:59:46.862Z,45.03
2023-04-16T11:01:28.187Z,42.01
2023-04-16T11:03:09.630Z,40.98
2023-04-16T11:04:51.139Z,41.10
2023-04-16T11:06:32.517Z,42.75
2023-04-16T11:08:13.870Z,42.54
2023-04-16T11:09:55.159Z,42.34
2023-04-16T11:11:36.493Z,42.58
2023-04-16T11:13:17.774Z,41.84
2023-04-16T11:14:59.065Z,41.57
2023-04-16T11:16:40.351Z,40.89
2023-04-16T11:18:21.628Z,41.82
2023-04-16T11:20:02.934Z,40.12
2023-04-16T11:21:44.869Z,40.98
2023-04-16T11:23:26.179Z,41.77
2023-04-16T11:25:07.491Z,41.21
2023-04-16T11:26:48.812Z,40.18
2023-04-16T11:28:30.121Z,38.33
2023-04-16T11:30:11.424Z,39.72
2023-04-16T11:31:52.864Z,38.36
2023-04-16T11:33:34.228Z,38.04
2023-04-16T11:35:15.602Z,38.30
2023-04-16T11:36:56.919Z,37.29
2023-04-16T11:38:38.184Z,38.75
2023-04-16T11:40:19.491Z,38.79
2023-04-16T11:42:00.817Z,39.99
2023-04-16T11:43:42.160Z,40.55
2023-04-16T11:45:23.625Z,41.50
2023-04-16T11:47:04.925Z,40.37
2023-04-16T11:48:46.273Z,40.24
2023-04-16T11:50:27.728Z,41.57
2023-04-16T11:52:09.082Z,41.79
2023-04-16T11:53:50.391Z,41.65
2023-04-16T11:55:31.661Z,42.16
2023-04-16T11:57:12.960Z,42.09
2023-04-16T11:58:54.280Z,42.42
2023-04-16T12:00:35.605Z,42.55
2023-04-16T12:02:17.002Z,41.88
2023-04-16T12:03:58.494Z,42.59
2023-04-16T12:05:39.997Z,42.29
2023-04-16T12:07:21.484Z,42.14
2023-04-16T12:09:02.838Z,41.38
2023-04-16T12:10:44.183Z,42.25
2023-04-16T12:12:25.501Z,41.83
2023-04-16T12:14:06.812Z,41.87
2023-04-16T12:15:48.160Z,40.49
2023-04-16T12:17:29.554Z,41.33
2023-04-16T12:19:11.086Z,40.83
2023-04-16T12:20:52.720Z,42.49
2023-04-16T12:22:36.006Z,41.59
2023-04-16T12:24:18.221Z,42.99
2023-04-16T12:25:59.521Z,42.65
2023-04-16T12:27:40.874Z,42.94
2023-04-16T12:29:22.178Z,42.27
2023-04-16T12:31:03.586Z,42.46
2023-04-16T12:32:45.031Z,40.96
2023-04-16T12:34:34.674Z,41.85
2023-04-16T12:36:27.583Z,40.86
2023-04-16T12:38:08.884Z,40.82
2023-04-16T12:39:50.177Z,39.92
2023-04-16T12:41:31.458Z,41.00
2023-04-16T12:43:12.757Z,41.38
2023-04-16T12:44:54.056Z,41.73
2023-04-16T12:46:35.399Z,40.96
2023-04-16T12:48:16.743Z,40.24
2023-04-16T12:49:58.073Z,40.49
2023-04-16T12:51:39.375Z,41.01
2023-04-16T12:53:20.665Z,39.74
2023-04-16T12:55:01.950Z,39.34
2023-04-16T12:56:43.239Z,39.90
2023-04-16T12:58:24.529Z,40.52
2023-04-16T13:00:05.832Z,42.62
2023-04-16T13:01:47.179Z,42.70
2023-04-16T13:03:28.566Z,42.22
2023-04-16T13:05:09.979Z,42.90
2023-04-16T13:06:51.276Z,41.64
2023-04-16T13:08:32.593Z,42.55
2023-04-16T13:10:13.883Z,42.59
2023-04-16T13:11:55.323Z,41.95
2023-04-16T13:13:36.680Z,41.73
2023-04-16T13:15:17.986Z,41.94
2023-04-16T13:16:59.280Z,41.58
2023-04-16T13:18:40.582Z,41.89
2023-04-16T13:20:24.358Z,42.58
2023-04-16T13:22:05.835Z,41.80
2023-04-16T13:23:47.151Z,41.64
2023-04-16T13:25:28.430Z,43.73
2023-04-16T13:27:09.754Z,41.78
2023-04-16T13:28:51.063Z,42.21
2023-04-16T13:30:32.354Z,42.99
2023-04-16T13:32:13.845Z,44.72
2023-04-16T13:33:55.163Z,44.42
2023-04-16T13:35:36.464Z,44.78
2023-04-16T13:37:17.726Z,44.38
2023-04-16T13:38:59.036Z,45.27
2023-04-16T13:40:40.325Z,44.23
2023-04-16T13:42:21.606Z,44.11
2023-04-16T13:44:02.918Z,43.84
2023-04-16T13:45:44.225Z,44.50
2023-04-16T13:47:25.636Z,44.23
2023-04-16T13:49:07.035Z,44.38
2023-04-16T13:50:48.412Z,44.19
2023-04-16T13:52:29.681Z,44.45
2023-04-16T13:54:10.969Z,45.76
2023-04-16T13:55:52.264Z,45.61
2023-04-16T13:57:33.566Z,46.25
2023-04-16T13:59:14.865Z,45.17
2023-04-16T14:00:56.247Z,43.39
2023-04-16T14:02:37.806Z,44.35
2023-04-16T14:04:19.296Z,43.64
2023-04-16T14:06:00.705Z,43.21
2023-04-16T14:07:41.988Z,44.39
2023-04-16T14:09:23.315Z,43.93
2023-04-16T14:11:04.631Z,44.16
2023-04-16T14:12:45.963Z,44.07
2023-04-16T14:14:27.393Z,43.97
2023-04-16T14:16:08.794Z,44.07
2023-04-16T14:17:50.239Z,44.56
2023-04-16T14:19:31.590Z,45.48
2023-04-16T14:21:12.920Z,44.89
2023-04-16T14:22:54.261Z,44.65
2023-04-16T14:24:35.574Z,44.11
2023-04-16T14:26:16.950Z,45.26
2023-04-16T14:27:58.211Z,46.21
2023-04-16T14:29:39.540Z,46.48
2023-04-16T14:31:20.943Z,46.45
2023-04-16T14:33:02.312Z,46.06
2023-04-16T14:34:43.664Z,45.59
2023-04-16T14:36:25.039Z,45.46
2023-04-16T14:38:06.332Z,45.40
2023-04-16T14:39:47.612Z,44.68
2023-04-16T14:41:29.008Z,44.30
2023-04-16T14:43:10.307Z,43.76
2023-04-16T14:44:51.620Z,42.53
2023-04-16T14:46:32.912Z,43.91
2023-04-16T14:48:14.377Z,42.99
2023-04-16T14:49:55.735Z,42.94
2023-04-16T14:51:37.098Z,43.26
2023-04-16T14:53:18.427Z,43.77
2023-04-16T14:54:59.797Z,45.23
2023-04-16T14:56:41.140Z,44.54
2023-04-16T14:58:22.448Z,43.62
2023-04-16T15:00:03.774Z,44.38
2023-04-16T15:01:45.270Z,44.02
2023-04-16T15:03:26.821Z,43.93
2023-04-16T15:05:08.257Z,43.58
2023-04-16T15:06:49.903Z,43.40
2023-04-16T15:08:31.306Z,42.81
2023-04-16T15:10:12.633Z,44.14
2023-04-16T15:11:53.958Z,44.09
2023-04-16T15:13:35.242Z,44.39
2023-04-16T15:15:16.545Z,44.49
2023-04-16T15:16:57.873Z,45.11
2023-04-16T15:18:39.196Z,45.55
2023-04-16T15:20:20.524Z,45.10
2023-04-16T15:22:01.899Z,44.44
2023-04-16T15:23:43.252Z,43.98
2023-04-16T15:25:24.548Z,42.60
2023-04-16T15:27:05.840Z,42.56
2023-04-16T15:28:47.134Z,42.04
2023-04-16T15:30:28.442Z,43.60
2023-04-16T15:32:09.754Z,44.88
2023-04-16T15:33:51.045Z,44.98
2023-04-16T15:35:32.382Z,45.11
2023-04-16T15:37:13.692Z,45.79
2023-04-16T15:38:54.974Z,47.81
2023-04-16T15:40:36.303Z,47.27
2023-04-16T15:42:17.623Z,47.31
2023-04-16T15:43:58.928Z,48.10
2023-04-16T15:45:40.421Z,47.94
2023-04-16T15:47:21.933Z,46.90
2023-04-16T15:49:03.279Z,47.17
2023-04-16T15:50:44.587Z,47.35
2023-04-16T15:52:26.102Z,48.32
2023-04-16T15:54:07.676Z,49.24
2023-04-16T15:55:49.227Z,49.22
2023-04-16T15:57:30.636Z,50.37
2023-04-16T15:59:12.211Z,50.86
2023-04-16T16:00:53.779Z,50.06
2023-04-16T16:02:35.247Z,51.68
2023-04-16T16:04:16.830Z,50.86
2023-04-16T16:05:59.434Z,50.68
2023-04-16T16:07:40.853Z,50.31
2023-04-16T16:09:22.130Z,50.09
2023-04-16T16:11:03.461Z,50.19
2023-04-16T16:12:44.781Z,50.70
2023-04-16T16:14:26.143Z,50.44
2023-04-16T16:16:07.556Z,50.33
2023-04-16T16:17:48.889Z,50.68
2023-04-16T16:19:30.212Z,50.87
2023-04-16T16:21:11.506Z,51.51
2023-04-16T16:22:52.828Z,52.95
2023-04-16T16:24:34.139Z,53.42
2023-04-16T16:26:15.454Z,52.26
2023-04-16T16:27:56.744Z,51.66
2023-04-16T16:29:38.121Z,52.21
2023-04-16T16:31:19.508Z,51.56
2023-04-16T16:33:00.876Z,51.79
2023-04-16T16:34:42.202Z,52.56
2023-04-16T16:36:23.518Z,52.07
2023-04-16T16:38:04.849Z,52.28
2023-04-16T16:39:46.144Z,52.39
2023-04-16T16:41:27.465Z,52.11
2023-04-16T16:43:08.918Z,52.98
2023-04-16T16:44:50.800Z,53.64
2023-04-16T16:46:32.381Z,54.72
2023-04-16T16:48:13.695Z,55.08
2023-04-16T16:49:54.988Z,52.42
2023-04-16T16:51:36.462Z,52.51
2023-04-16T16:53:17.852Z,51.96
2023-04-16T16:54:59.256Z,52.88
2023-04-16T16:56:40.626Z,53.09
2023-04-16T16:58:21.947Z,52.12
2023-04-16T17:00:03.267Z,51.56
2023-04-16T17:01:44.588Z,51.68
2023-04-16T17:03:26.011Z,52.14
2023-04-16T17:05:07.397Z,53.61
2023-04-16T17:06:48.749Z,52.75
2023-04-16T17:08:30.060Z,53.22
2023-04-16T17:10:11.433Z,54.27
2023-04-16T17:11:52.721Z,54.58
2023-04-16T17:13:34.107Z,55.56
2023-04-16T17:15:15.463Z,55.30
2023-04-16T17:16:56.880Z,55.65
2023-04-16T17:18:38.239Z,55.98
2023-04-16T17:20:19.544Z,55.64
2023-04-16T17:22:00.860Z,55.01
2023-04-16T17:23:42.359Z,54.43
2023-04-16T17:25:23.677Z,54.81
2023-04-16T17:27:05.054Z,55.46
2023-04-16T17:28:46.356Z,55.05
2023-04-16T17:30:27.664Z,55.04
2023-04-16T17:32:08.994Z,54.46
2023-04-16T17:33:50.295Z,55.44
2023-04-16T17:35:31.617Z,54.21
2023-04-16T17:37:12.929Z,52.81
2023-04-16T17:38:54.217Z,52.89
2023-04-16T17:40:35.516Z,52.37
2023-04-16T17:42:16.816Z,52.15
2023-04-16T17:43:58.172Z,51.63
2023-04-16T17:45:39.592Z,52.06
2023-04-16T17:47:21.035Z,52.37
2023-04-16T17:49:02.339Z,52.35
2023-04-16T17:50:43.661Z,52.16
2023-04-16T17:52:24.935Z,51.68
2023-04-16T17:54:06.209Z,50.94
2023-04-16T17:55:47.524Z,49.94
2023-04-16T17:57:28.836Z,51.03
2023-04-16T17:59:10.194Z,51.93
2023-04-16T18:00:51.492Z,51.20
2023-04-16T18:02:32.911Z,51.70
2023-04-16T18:04:14.677Z,50.40
2023-04-16T18:05:56.396Z,49.92
2023-04-16T18:07:37.737Z,49.84
2023-04-16T18:09:19.072Z,50.57
2023-04-16T18:11:00.357Z,49.77
2023-04-16T18:12:41.636Z,50.14
2023-04-16T18:14:22.961Z,51.85
2023-04-16T18:16:04.279Z,51.66
2023-04-16T18:17:45.689Z,51.84
2023-04-16T18:19:27.066Z,52.30
2023-04-16T18:21:08.364Z,52.46
2023-04-16T18:22:49.654Z,53.07
2023-04-16T18:24:30.948Z,52.61
2023-04-16T18:26:12.749Z,51.89
2023-04-16T18:27:54.196Z,52.85
2023-04-16T18:29:35.518Z,51.71
2023-04-16T18:31:20.646Z,50.98
2023-04-16T18:34:46.719Z,51.79
2023-04-16T18:36:27.999Z,51.37
2023-04-16T18:38:09.280Z,51.31
2023-04-16T18:39:50.616Z,51.88
2023-04-16T18:41:31.909Z,51.28
2023-04-16T18:43:13.237Z,51.16
2023-04-16T18:44:54.601Z,50.02
2023-04-16T18:46:36.235Z,49.77
2023-04-16T18:48:17.830Z,48.99
2023-04-16T18:49:59.125Z,48.78
2023-04-16T18:51:40.415Z,48.92
2023-04-16T18:53:21.945Z,49.31
2023-04-16T18:55:03.549Z,49.67
2023-04-16T18:56:45.023Z,49.54
2023-04-16T18:58:26.352Z,49.55
2023-04-16T19:00:07.814Z,49.48
2023-04-16T19:01:49.327Z,49.83
2023-04-16T19:03:30.783Z,50.56
2023-04-16T19:05:12.187Z,50.47
2023-04-16T19:06:53.484Z,49.70
2023-04-16T19:08:34.752Z,51.03
2023-04-16T19:10:16.148Z,50.89
2023-04-16T19:11:57.925Z,50.37
2023-04-16T19:13:39.290Z,51.19
2023-04-16T19:15:20.596Z,52.05
2023-04-16T19:17:01.971Z,50.93
2023-04-16T19:18:43.342Z,51.13
2023-04-16T19:20:24.626Z,50.86
2023-04-16T19:22:05.934Z,51.00
2023-04-16T19:23:47.367Z,51.97
2023-04-16T19:25:28.661Z,50.94
2023-04-16T19:27:09.928Z,50.88
2023-04-16T19:28:51.292Z,51.08
2023-04-16T19:30:32.590Z,51.37
2023-04-16T19:32:14.221Z,50.69
2023-04-16T19:33:55.718Z,50.72
2023-04-16T19:35:40.272Z,49.81
2023-04-16T19:37:21.806Z,49.77
2023-04-16T19:39:03.092Z,50.82
2023-04-16T19:40:44.493Z,49.84
2023-04-16T19:42:25.761Z,50.29
2023-04-16T19:44:07.084Z,49.85
2023-04-16T19:45:48.434Z,50.32
2023-04-16T19:47:29.802Z,50.40
2023-04-16T19:49:11.382Z,51.27
2023-04-16T19:50:52.838Z,50.61
2023-04-16T19:52:34.147Z,51.30
2023-04-16T19:54:15.425Z,51.14
2023-04-16T19:55:56.739Z,50.88
2023-04-16T19:57:38.033Z,50.59
2023-04-16T19:59:19.358Z,50.82
2023-04-16T20:01:00.687Z,52.21
2023-04-16T20:02:42.137Z,52.56
2023-04-16T20:04:23.541Z,52.35
2023-04-16T20:06:04.884Z,51.58
2023-04-16T20:07:50.263Z,50.46
2023-04-16T20:09:33.042Z,50.09
2023-04-16T20:11:14.619Z,50.73
2023-04-16T20:12:55.895Z,49.97
2023-04-16T20:14:37.233Z,49.64
2023-04-16T20:16:18.541Z,49.52
2023-04-16T20:18:00.042Z,49.36
2023-04-16T20:19:41.435Z,49.09
2023-04-16T20:21:22.734Z,50.16
2023-04-16T20:23:04.018Z,49.85
2023-04-16T20:24:47.282Z,50.12
2023-04-16T20:26:28.991Z,50.01
2023-04-16T20:28:10.284Z,50.78
2023-04-16T20:29:51.579Z,49.53
2023-04-16T20:31:32.896Z,49.23
2023-04-16T20:33:14.287Z,49.91
2023-04-16T20:34:55.667Z,49.18
2023-04-16T20:36:36.965Z,49.29
2023-04-16T20:38:18.307Z,48.73
2023-04-16T20:39:59.614Z,49.84
2023-04-16T20:41:40.897Z,49.19
2023-04-16T20:43:22.200Z,49.53
2023-04-16T20:45:03.469Z,49.21
2023-04-16T20:46:44.851Z,49.93
2023-04-16T20:48:26.274Z,49.75
2023-04-16T20:50:07.634Z,49.98
2023-04-16T20:51:48.936Z,50.91
2023-04-16T20:53:30.236Z,49.96
2023-04-16T20:55:11.540Z,49.54
2023-04-16T20:56:52.804Z,49.90
2023-04-16T20:58:34.128Z,48.96
2023-04-16T21:00:15.426Z,48.93
2023-04-16T21:01:56.865Z,49.11
2023-04-16T21:03:38.492Z,48.64
2023-04-16T21:05:19.920Z,48.22
2023-04-16T21:07:01.189Z,48.38
2023-04-16T21:08:42.477Z,48.45
2023-04-16T21:10:23.771Z,49.39
2023-04-16T21:12:05.066Z,50.10
2023-04-16T21:13:46.370Z,50.40
2023-04-16T21:15:27.720Z,50.69
2023-04-16T21:17:09.035Z,51.01
2023-04-16T21:18:50.334Z,50.79
2023-04-16T21:20:31.701Z,50.88
2023-04-16T21:22:13.037Z,50.97
2023-04-16T21:23:54.435Z,51.64
2023-04-16T21:25:35.761Z,52.04
2023-04-16T21:27:17.067Z,51.35
2023-04-16T21:28:58.346Z,52.41
2023-04-16T21:30:39.678Z,52.74
2023-04-16T21:32:21.424Z,52.60
2023-04-16T21:34:02.766Z,53.84
2023-04-16T21:35:44.102Z,53.96
2023-04-16T21:37:25.434Z,53.13
2023-04-16T21:39:06.756Z,53.39
2023-04-16T21:40:48.070Z,53.84
2023-04-16T21:42:29.368Z,55.13
2023-04-16T21:44:10.667Z,53.89
2023-04-16T21:45:51.955Z,52.67
2023-04-16T21:47:33.275Z,52.54